Time;durP1;ratioP1;P1;durP2;ratioP2;P2;SDS_P1;SDS_P2;PMS_P1;PMS_P2;Temp;Humidity;BMP_temperature;BMP_pressure;BME280_temperature;BME280_humidity;BME280_pressure;Samples;Min_cycle;Max_cycle;Signal;HPM_P1;HPM_P2
2023/03/03 00:00:06;;;;;;;45.10;22.50;;;;;;;-3.81;100.00;101466.85;109016;1241;582950;-77
2023/03/03 00:03:05;;;;;;;55.70;28.70;;;;;;;-3.81;100.00;101462.25;109462;1241;73346;-75
2023/03/03 00:05:35;;;;;;;60.30;32.40;;;;;;;-3.82;100.00;101465.15;109571;1245;60381;-73
2023/03/03 00:08:04;;;;;;;51.20;24.70;;;;;;;-3.83;99.97;101461.08;109378;1241;60169;-73
2023/03/03 00:10:34;;;;;;;42.00;22.00;;;;;;;-3.84;99.97;101459.71;109599;1244;71986;-73
2023/03/03 00:13:03;;;;;;;39.80;20.80;;;;;;;-3.84;99.90;101454.27;109427;1241;71472;-75
2023/03/03 00:15:32;;;;;;;41.70;21.40;;;;;;;-3.84;99.94;101451.04;109505;1241;68394;-74
2023/03/03 00:18:16;;;;;;;44.70;23.30;;;;;;;-3.83;99.98;101446.95;109553;1242;71146;-75
2023/03/03 00:20:54;;;;;;;45.30;23.20;;;;;;;-3.83;100.00;101444.38;109449;1241;61865;-74
2023/03/03 00:23:36;;;;;;;40.30;21.20;;;;;;;-3.83;100.00;101442.52;109442;1241;59984;-74
2023/03/03 00:26:40;;;;;;;133.30;50.20;;;;;;;-3.82;100.00;101437.58;109270;1241;74167;-75
2023/03/03 00:29:23;;;;;;;;;;;;;;;-3.85;100.00;101432.30;109384;1241;71788;-74
2023/03/03 00:31:52;;;;;;;70.20;33.10;;;;;;;-3.87;100.00;101433.83;109458;1241;69753;-75
2023/03/03 00:34:27;;;;;;;55.90;30.50;;;;;;;-3.88;100.00;101432.48;109256;1241;71929;-74
2023/03/03 00:36:57;;;;;;;65.50;32.90;;;;;;;-3.89;100.00;101429.08;109230;1246;61334;-73
2023/03/03 00:39:35;;;;;;;63.10;33.10;;;;;;;-3.90;99.97;101423.64;109353;1244;60633;-74
2023/03/03 00:42:16;;;;;;;107.10;45.40;;;;;;;-3.93;99.95;101422.45;109391;1241;71653;-73
2023/03/03 00:44:59;;;;;;;111.20;45.60;;;;;;;-3.96;99.98;101412.59;109251;1245;70479;-73
2023/03/03 00:47:37;;;;;;;106.80;44.30;;;;;;;-3.97;99.89;101410.55;109472;1241;69659;-74
2023/03/03 00:50:06;;;;;;;114.40;45.50;;;;;;;-3.99;99.97;101403.05;109692;1241;71438;-74
2023/03/03 00:52:45;;;;;;;83.30;35.80;;;;;;;-4.01;100.00;101405.11;109351;1247;60231;-74
2023/03/03 00:55:13;;;;;;;54.70;28.00;;;;;;;-4.02;99.96;101406.64;109506;1241;61828;-73
2023/03/03 00:57:42;;;;;;;40.80;20.70;;;;;;;-4.02;100.00;101405.96;109308;1241;74104;-73
2023/03/03 01:00:13;;;;;;;46.40;24.10;;;;;;;-4.03;100.00;101400.34;109569;1241;73057;-72
2023/03/03 01:02:44;;;;;;;68.80;28.20;;;;;;;-4.05;100.00;101401.86;109590;1241;70963;-73
2023/03/03 01:05:15;;;;;;;55.90;25.10;;;;;;;-4.06;99.97;101401.19;109466;1241;74647;-74
2023/03/03 01:07:44;;;;;;;50.50;24.00;;;;;;;-4.08;99.82;101396.27;109560;1244;59863;-75
2023/03/03 01:10:13;;;;;;;44.60;22.60;;;;;;;-4.10;99.87;101396.44;109498;1244;58851;-73
2023/03/03 01:12:42;;;;;;;42.60;19.20;;;;;;;-4.10;99.31;101396.42;109691;1244;71556;-73
2023/03/03 01:15:14;;;;;;;45.10;23.50;;;;;;;-4.13;98.29;101392.70;109639;1241;69487;-76
2023/03/03 01:17:43;;;;;;;36.00;20.80;;;;;;;-4.16;99.84;101398.82;109619;1241;70403;-74
2023/03/03 01:20:13;;;;;;;44.70;22.60;;;;;;;-4.18;99.98;101392.88;109752;1241;73899;-74
2023/03/03 01:22:42;;;;;;;37.80;20.80;;;;;;;-4.20;99.98;101388.95;109522;1245;62492;-74
2023/03/03 01:25:12;;;;;;;43.30;20.20;;;;;;;-4.24;99.48;101384.02;109863;1241;61813;-74
2023/03/03 01:27:40;;;;;;;20.70;12.40;;;;;;;-4.20;98.74;101391.35;109624;1241;74217;-75
2023/03/03 01:30:10;;;;;;;49.40;23.70;;;;;;;-4.20;99.04;101392.53;109890;1241;69727;-74
2023/03/03 01:32:39;;;;;;;43.70;23.60;;;;;;;-4.29;99.52;101387.95;109826;1241;70502;-77
2023/03/03 01:35:08;;;;;;;36.30;20.50;;;;;;;-4.31;100.00;101383.86;109596;1241;73681;-75
2023/03/03 01:37:37;;;;;;;38.80;21.40;;;;;;;-4.33;100.00;101385.05;109767;1244;60022;-73
2023/03/03 01:40:13;;;;;;;40.90;22.40;;;;;;;-4.31;100.00;101382.66;109619;1241;59650;-73
2023/03/03 01:42:42;;;;;;;42.20;22.10;;;;;;;-4.30;100.00;101378.27;109668;1245;70738;-73
2023/03/03 01:45:26;;;;;;;44.90;22.40;;;;;;;-4.27;100.00;101378.58;109586;1245;70192;-73
2023/03/03 01:48:01;;;;;;;43.70;22.00;;;;;;;-4.26;100.00;101372.63;109647;1241;69778;-71
2023/03/03 01:50:44;;;;;;;46.30;23.80;;;;;;;-4.26;100.00;101369.56;109796;1241;72469;-74
2023/03/03 01:53:22;;;;;;;45.50;23.40;;;;;;;-4.30;100.00;101363.97;109634;1244;59992;-73
2023/03/03 01:55:52;;;;;;;50.10;25.10;;;;;;;-4.34;99.91;101362.77;109593;1244;59402;-72
2023/03/03 01:58:30;;;;;;;47.10;24.90;;;;;;;-4.39;99.68;101361.09;109744;1244;70794;-71
2023/03/03 02:01:13;;;;;;;43.10;22.00;;;;;;;-4.47;99.37;101362.96;109816;1241;71400;-73
2023/03/03 02:03:43;;;;;;;43.50;22.90;;;;;;;-4.53;99.38;101364.14;109546;1241;69021;-78
2023/03/03 02:06:19;;;;;;;45.90;24.30;;;;;;;-4.60;99.86;101363.81;109742;1241;73818;-74
2023/03/03 02:09:09;;;;;;;40.40;23.40;;;;;;;-4.61;100.00;101364.65;109571;1241;62656;-73
2023/03/03 02:11:42;;;;;;;45.30;25.00;;;;;;;-4.62;100.00;101357.85;109755;1244;59157;-72
2023/03/03 02:14:12;;;;;;;40.70;22.70;;;;;;;-4.64;100.00;101357.86;109859;1241;73482;-72
2023/03/03 02:16:44;;;;;;;44.80;23.20;;;;;;;-4.66;100.00;101359.55;109587;1245;69076;-77
2023/03/03 02:19:57;;;;;;;49.60;22.10;;;;;;;-4.67;100.00;101356.66;109831;1241;69465;-77
2023/03/03 02:22:57;;;;;;;48.90;23.50;;;;;;;-4.67;100.00;101353.42;109734;1244;73076;-74
2023/03/03 02:25:55;;;;;;;53.20;30.70;;;;;;;-4.65;100.00;101357.85;109588;1244;61455;-74
2023/03/03 02:28:31;;;;;;;67.60;40.50;;;;;;;-4.65;100.00;101353.44;109690;1244;60896;-74
2023/03/03 02:31:06;;;;;;;98.50;40.20;;;;;;;-4.66;100.00;101352.57;109700;1243;71532;-75
2023/03/03 02:33:35;;;;;;;63.90;29.40;;;;;;;-4.66;100.00;101351.38;109742;1244;70233;-73
2023/03/03 02:36:05;;;;;;;55.30;29.50;;;;;;;-4.66;100.00;101355.45;109720;1244;68588;-74
2023/03/03 02:38:42;;;;;;;51.70;26.10;;;;;;;-4.67;100.00;101351.55;109589;1241;73779;-73
2023/03/03 02:41:48;;;;;;;49.90;25.60;;;;;;;-4.69;100.00;101349.19;109587;1244;61627;-78
2023/03/03 02:44:21;;;;;;;48.30;26.60;;;;;;;-4.71;100.00;101346.11;109781;1241;59120;-75
2023/03/03 02:46:52;;;;;;;44.00;23.50;;;;;;;-4.74;100.00;101341.53;109806;1244;73520;-75
2023/03/03 02:49:28;;;;;;;56.40;26.50;;;;;;;-4.76;100.00;101339.48;109524;1241;70740;-73
2023/03/03 02:51:59;;;;;;;50.10;25.80;;;;;;;-4.82;100.00;101342.55;109608;1245;67798;-73
2023/03/03 02:54:29;;;;;;;51.50;24.60;;;;;;;-4.85;100.00;101338.13;109524;1241;73048;-75
2023/03/03 02:56:59;;;;;;;56.30;26.40;;;;;;;-4.86;100.00;101337.95;109605;1246;61640;-75
2023/03/03 02:59:28;;;;;;;44.40;23.90;;;;;;;-4.87;100.00;101337.11;109765;1244;59960;-75
2023/03/03 03:01:58;;;;;;;52.60;26.00;;;;;;;-4.87;100.00;101337.45;109739;1244;71755;-76
2023/03/03 03:04:27;;;;;;;51.10;25.50;;;;;;;-4.87;100.00;101334.55;109510;1248;72244;-75
2023/03/03 03:06:56;;;;;;;60.30;26.80;;;;;;;-4.87;100.00;101332.17;109813;1241;70481;-75
2023/03/03 03:09:27;;;;;;;58.30;28.40;;;;;;;-4.86;100.00;101324.53;109695;1244;71696;-76
2023/03/03 03:11:58;;;;;;;53.50;26.50;;;;;;;-4.85;100.00;101321.64;109569;1244;59697;-75
2023/03/03 03:14:27;;;;;;;57.90;28.80;;;;;;;-4.86;100.00;101319.10;109707;1241;61176;-75
2023/03/03 03:16:56;;;;;;;61.40;28.50;;;;;;;-4.85;100.00;101318.42;109848;1241;72419;-75
2023/03/03 03:19:24;;;;;;;55.80;26.50;;;;;;;-4.84;100.00;101317.23;109640;1245;72517;-75
2023/03/03 03:21:53;;;;;;;63.10;27.50;;;;;;;-4.84;100.00;101316.04;109863;1241;69998;-75
2023/03/03 03:24:22;;;;;;;51.40;26.70;;;;;;;-4.85;100.00;101315.86;109803;1241;71857;-75
2023/03/03 03:26:58;;;;;;;59.70;28.00;;;;;;;-4.88;100.00;101310.25;109717;1242;61753;-73
2023/03/03 03:29:28;;;;;;;51.30;27.00;;;;;;;-4.90;99.92;101307.87;109697;1242;62414;-75
2023/03/03 03:31:56;;;;;;;58.20;27.50;;;;;;;-4.92;100.00;101306.69;109716;1243;73170;-80
2023/03/03 03:34:25;;;;;;;53.10;27.80;;;;;;;-4.94;99.92;101309.56;109686;1241;73125;-80
2023/03/03 03:36:54;;;;;;;55.60;26.40;;;;;;;-4.99;99.99;101300.39;109516;1241;70315;-80
2023/03/03 03:39:23;;;;;;;54.80;26.40;;;;;;;-4.97;99.98;101306.85;109562;1241;73662;-75
2023/03/03 03:41:52;;;;;;;52.90;28.40;;;;;;;-4.96;100.00;101302.44;109526;1244;61695;-75
2023/03/03 03:44:22;;;;;;;49.00;26.40;;;;;;;-4.96;100.00;101302.44;109631;1242;59810;-74
2023/03/03 03:46:52;;;;;;;50.90;26.80;;;;;;;-4.97;100.00;101304.48;109558;1241;74397;-75
2023/03/03 03:49:21;;;;;;;57.80;27.30;;;;;;;-4.98;99.99;101303.63;109545;1241;71514;-76
2023/03/03 03:51:50;;;;;;;49.30;25.80;;;;;;;-4.99;100.00;101306.34;109598;1241;70164;-73
2023/03/03 03:54:21;;;;;;;52.50;28.10;;;;;;;-4.99;100.00;101303.29;109471;1241;74142;-76
2023/03/03 03:56:50;;;;;;;61.50;30.30;;;;;;;-5.00;100.00;101302.93;109514;1244;61007;-74
2023/03/03 03:59:19;;;;;;;57.60;29.70;;;;;;;-5.01;100.00;101304.98;109520;1244;61791;-74
2023/03/03 04:01:49;;;;;;;61.20;29.70;;;;;;;-5.06;100.00;101304.62;109456;1241;71013;-75
2023/03/03 04:04:18;;;;;;;69.60;30.60;;;;;;;-5.06;100.00;101303.61;109416;1241;70247;-75
2023/03/03 04:06:48;;;;;;;60.40;30.40;;;;;;;-5.05;100.00;101299.36;109387;1241;69794;-73
2023/03/03 04:09:17;;;;;;;58.80;30.00;;;;;;;-5.07;100.00;101287.65;109366;1242;71799;-74
2023/03/03 04:11:46;;;;;;;65.20;31.30;;;;;;;-5.06;100.00;101286.95;109284;1244;61328;-75
2023/03/03 04:14:15;;;;;;;57.50;29.80;;;;;;;-5.10;100.00;101284.08;109513;1241;60153;-76
2023/03/03 04:16:44;;;;;;;57.50;28.50;;;;;;;-5.13;100.00;101283.90;109483;1241;74776;-74
2023/03/03 04:19:13;;;;;;;52.60;28.20;;;;;;;-5.13;100.00;101279.83;109564;1241;69141;-74
2023/03/03 04:21:42;;;;;;;66.20;31.90;;;;;;;-5.14;99.98;101280.17;109565;1241;68564;-73
2023/03/03 04:24:11;;;;;;;58.20;28.90;;;;;;;-5.16;99.96;101272.70;109480;1241;72340;-73
2023/03/03 04:26:40;;;;;;;58.50;28.10;;;;;;;-5.18;100.00;101270.13;109466;1244;60383;-74
2023/03/03 04:29:09;;;;;;;63.80;30.50;;;;;;;-5.19;99.96;101267.92;109487;1241;60321;-79
2023/03/03 04:31:38;;;;;;;55.30;28.90;;;;;;;-5.21;100.00;101267.43;109526;1241;74281;-74
2023/03/03 04:34:08;;;;;;;64.30;31.10;;;;;;;-5.20;100.00;101263.69;109521;1241;70261;-74
2023/03/03 04:36:37;;;;;;;68.80;31.70;;;;;;;-5.20;100.00;101264.20;109502;1241;69404;-75
2023/03/03 04:39:06;;;;;;;65.90;29.20;;;;;;;-5.21;100.00;101264.70;109501;1242;72868;-72
2023/03/03 04:41:35;;;;;;;63.20;29.00;;;;;;;-5.20;100.00;101263.70;109338;1241;61344;-77
2023/03/03 04:44:04;;;;;;;61.80;29.60;;;;;;;-5.21;100.00;101262.50;109352;1241;58655;-74
2023/03/03 04:46:33;;;;;;;57.80;29.10;;;;;;;-5.22;100.00;101265.55;109608;1241;72402;-77
2023/03/03 04:49:03;;;;;;;56.60;28.40;;;;;;;-5.22;100.00;101265.55;109446;1241;69967;-76
2023/03/03 04:51:35;;;;;;;62.70;29.60;;;;;;;-5.22;100.00;101263.17;109427;1241;69178;-77
2023/03/03 04:54:04;;;;;;;56.90;29.60;;;;;;;-5.20;100.00;101259.11;109315;1241;71962;-78
2023/03/03 04:56:33;;;;;;;50.60;26.50;;;;;;;-5.17;100.00;101260.96;109357;1244;60415;-74
2023/03/03 04:59:02;;;;;;;60.70;26.40;;;;;;;-5.17;99.95;101261.82;109511;1241;59612;-74
2023/03/03 05:01:31;;;;;;;50.20;26.90;;;;;;;-5.16;100.00;101263.86;109536;1244;73109;-74
2023/03/03 05:04:01;;;;;;;54.50;27.40;;;;;;;-5.13;100.00;101264.36;109609;1241;71805;-77
2023/03/03 05:06:30;;;;;;;61.90;30.00;;;;;;;-5.06;100.00;101260.64;109482;1241;69919;-78
2023/03/03 05:09:00;;;;;;;58.90;30.00;;;;;;;-5.00;100.00;101259.96;109610;1241;72672;-78
2023/03/03 05:11:29;;;;;;;67.30;29.10;;;;;;;-4.96;100.00;101258.09;109455;1241;62664;-78
2023/03/03 05:13:58;;;;;;;65.30;30.90;;;;;;;-4.93;100.00;101260.30;109472;1241;61106;-80
2023/03/03 05:16:26;;;;;;;65.60;30.10;;;;;;;-4.91;100.00;101261.15;109709;1241;73199;-83
2023/03/03 05:18:55;;;;;;;62.60;30.90;;;;;;;-4.87;99.99;101256.58;109487;1241;71932;-80
2023/03/03 05:21:24;;;;;;;72.50;31.80;;;;;;;-4.83;100.00;101256.89;109636;1241;68450;-81
2023/03/03 05:23:53;;;;;;;64.60;30.10;;;;;;;-4.80;99.83;101256.39;109598;1241;71842;-77
2023/03/03 05:26:22;;;;;;;69.40;30.90;;;;;;;-4.75;99.69;101257.41;109667;1242;61206;-79
2023/03/03 05:28:51;;;;;;;70.90;32.70;;;;;;;-4.68;99.61;101252.80;109702;1241;61900;-79
2023/03/03 05:31:19;;;;;;;73.20;33.10;;;;;;;-4.63;99.27;101255.86;109644;1241;74598;-84
2023/03/03 05:33:48;;;;;;;75.90;34.80;;;;;;;-4.58;99.12;101253.65;109718;1241;71704;-80
2023/03/03 05:36:17;;;;;;;68.60;34.80;;;;;;;-4.50;98.84;101252.61;109614;1244;70084;-82
2023/03/03 05:38:46;;;;;;;71.60;33.10;;;;;;;-4.44;98.64;101250.23;109630;1241;72404;-79
2023/03/03 05:41:15;;;;;;;78.60;35.40;;;;;;;-4.35;98.85;101249.86;109606;1242;60451;-81
2023/03/03 05:43:44;;;;;;;68.80;34.10;;;;;;;-4.28;98.50;101248.31;109473;1241;59375;-82
2023/03/03 05:46:13;;;;;;;66.20;32.90;;;;;;;-4.17;98.50;101249.30;109778;1241;71532;-82
2023/03/03 05:48:42;;;;;;;65.40;34.30;;;;;;;-4.07;98.75;101249.27;109796;1241;69561;-81
2023/03/03 05:51:11;;;;;;;73.60;34.00;;;;;;;-3.94;98.80;101253.30;109598;1241;69647;-84
2023/03/03 05:53:40;;;;;;;67.20;34.80;;;;;;;-3.81;98.69;101253.24;109751;1242;74209;-82
2023/03/03 05:56:09;;;;;;;66.60;34.20;;;;;;;-3.69;98.26;101253.70;109688;1242;60250;-82
2023/03/03 05:58:38;;;;;;;66.20;34.30;;;;;;;-3.56;98.13;101250.40;109722;1241;61439;-82
2023/03/03 06:01:07;;;;;;;65.30;36.70;;;;;;;-3.43;97.87;101244.69;109826;1241;74887;-83
2023/03/03 06:03:36;;;;;;;70.70;35.00;;;;;;;-3.28;97.98;101244.24;109801;1241;69843;-81
2023/03/03 06:06:05;;;;;;;65.40;36.20;;;;;;;-3.14;97.31;101241.95;109751;1241;68586;-80
2023/03/03 06:08:34;;;;;;;74.90;36.60;;;;;;;-3.03;96.78;101238.78;109732;1240;71911;-80
2023/03/03 06:11:03;;;;;;;65.40;35.80;;;;;;;-2.90;97.03;101239.70;109766;1241;58847;-80
2023/03/03 06:13:33;;;;;;;75.00;37.60;;;;;;;-2.78;96.89;101237.03;109620;1241;58861;-80
2023/03/03 06:16:02;;;;;;;70.20;35.40;;;;;;;-2.66;96.40;101237.95;109875;1241;73500;-80
2023/03/03 06:18:31;;;;;;;77.10;37.30;;;;;;;-2.53;95.90;101240.03;109772;1241;72155;-82
2023/03/03 06:20:59;;;;;;;63.70;36.30;;;;;;;-2.41;95.09;101236.35;109862;1241;70066;-80
2023/03/03 06:23:28;;;;;;;75.20;36.70;;;;;;;-2.30;94.48;101237.07;109887;1241;72330;-79
2023/03/03 06:25:57;;;;;;;70.10;37.60;;;;;;;-2.13;94.20;101236.37;109860;1241;59555;-81
2023/03/03 06:28:27;;;;;;;72.50;37.20;;;;;;;-1.98;93.90;101237.89;109830;1241;58600;-81
2023/03/03 06:30:56;;;;;;;71.50;37.90;;;;;;;-1.81;93.61;101238.54;109805;1241;73080;-83
2023/03/03 06:33:25;;;;;;;76.00;39.10;;;;;;;-1.65;92.80;101236.27;109755;1241;69987;-79
2023/03/03 06:35:54;;;;;;;77.80;40.30;;;;;;;-1.50;92.79;101238.27;109801;1241;69594;-81
2023/03/03 06:38:22;;;;;;;89.40;40.90;;;;;;;-1.38;91.94;101238.10;109747;1241;74202;-78
2023/03/03 06:40:51;;;;;;;73.80;39.90;;;;;;;-1.21;91.60;101241.27;109768;1244;58465;-82
2023/03/03 06:43:20;;;;;;;81.50;40.60;;;;;;;-1.06;90.88;101242.91;109761;1241;58910;-80
2023/03/03 06:45:49;;;;;;;77.40;38.90;;;;;;;-0.94;90.11;101242.72;109601;1244;71237;-79
2023/03/03 06:48:18;;;;;;;79.00;38.70;;;;;;;-0.88;89.88;101241.77;109673;1241;70112;-81
2023/03/03 06:50:47;;;;;;;82.30;39.50;;;;;;;-0.76;89.67;101246.88;109615;1241;70445;-85
2023/03/03 06:53:18;;;;;;;78.10;36.40;;;;;;;-0.66;89.46;101244.30;109684;1241;72401;-80
2023/03/03 06:55:47;;;;;;;77.90;38.30;;;;;;;-0.55;89.80;101245.14;109589;1244;61633;-82
2023/03/03 06:58:21;;;;;;;62.40;32.50;;;;;;;-0.51;88.38;101238.41;109491;1241;60220;-82
2023/03/03 07:00:58;;;;;;;62.50;29.70;;;;;;;-0.42;87.49;101240.63;109363;1241;73189;-80
2023/03/03 07:03:33;;;;;;;55.40;28.20;;;;;;;-0.24;88.28;101233.61;109392;1241;70638;-82
2023/03/03 07:06:25;;;;;;;60.20;34.20;;;;;;;-0.25;86.38;101235.16;109645;1241;67846;-81
2023/03/03 07:08:56;;;;;;;66.70;32.00;;;;;;;-0.20;86.10;101224.45;109616;1241;73846;-83
2023/03/03 07:11:25;;;;;;;65.80;31.40;;;;;;;-0.08;85.43;101228.83;109757;1242;59959;-84
2023/03/03 07:13:54;;;;;;;67.20;33.20;;;;;;;0.05;85.38;101228.06;109743;1241;60860;-83
2023/03/03 07:16:26;;;;;;;69.00;32.40;;;;;;;0.17;85.62;101229.35;109658;1241;74400;-83
2023/03/03 07:19:04;;;;;;;65.80;34.20;;;;;;;0.31;84.40;101227.69;109456;1241;71962;-84
2023/03/03 07:21:37;;;;;;;71.50;36.00;;;;;;;0.42;83.78;101224.34;109661;1241;71868;-82
2023/03/03 07:24:28;;;;;;;;;;;;;;;0.49;83.52;101222.66;109511;1247;71456;-81
2023/03/03 07:27:11;;;;;;;66.10;34.80;;;;;;;0.45;82.93;101221.20;109721;1242;59647;-81
2023/03/03 07:29:40;;;;;;;70.70;35.50;;;;;;;0.51;82.82;101215.41;109636;1241;61719;-82
2023/03/03 07:32:33;;;;;;;71.30;37.10;;;;;;;0.68;82.42;101212.46;109522;1241;72334;-84
2023/03/03 07:35:28;;;;;;;84.50;41.70;;;;;;;0.89;82.73;101206.47;109688;1244;70086;-81
2023/03/03 07:37:58;;;;;;;75.90;38.90;;;;;;;1.05;82.34;101199.70;109529;1241;69610;-83
2023/03/03 07:40:37;;;;;;;76.70;38.40;;;;;;;1.22;81.62;101196.54;109715;1241;73579;-80
2023/03/03 07:43:38;;;;;;;79.50;38.90;;;;;;;1.26;80.10;101193.52;109625;1244;60078;-81
2023/03/03 07:46:10;;;;;;;67.70;36.50;;;;;;;1.45;79.80;101186.14;109362;1244;59926;-83
2023/03/03 07:48:41;;;;;;;78.30;37.20;;;;;;;1.60;79.67;101184.03;109580;1243;71595;-82
2023/03/03 07:51:42;;;;;;;74.60;37.00;;;;;;;1.72;78.09;101181.30;109511;1242;70261;-81
2023/03/03 07:54:27;;;;;;;66.40;35.30;;;;;;;1.95;78.80;101181.46;109600;1241;70383;-82
2023/03/03 07:57:10;;;;;;;68.70;35.50;;;;;;;2.15;77.86;101179.02;109545;1244;74224;-83
2023/03/03 08:00:15;;;;;;;58.50;32.60;;;;;;;2.24;76.84;101174.77;109669;1242;62903;-84
2023/03/03 08:03:11;;;;;;;53.10;28.70;;;;;;;2.27;75.65;101173.48;109475;1241;57555;-81
2023/03/03 08:05:42;;;;;;;64.70;31.40;;;;;;;2.49;75.91;101170.91;109515;1241;72707;-82
2023/03/03 08:08:21;;;;;;;60.80;33.10;;;;;;;2.68;75.51;101167.20;109613;1241;69866;-79
2023/03/03 08:10:54;;;;;;;57.30;29.70;;;;;;;2.84;74.54;101164.95;109723;1241;68904;-81
2023/03/03 08:13:40;;;;;;;51.10;28.40;;;;;;;2.92;73.67;101161.59;109619;1244;72371;-81
2023/03/03 08:16:09;;;;;;;39.50;23.80;;;;;;;3.06;73.51;101155.29;109731;1243;57234;-82
2023/03/03 08:18:51;;;;;;;51.60;24.80;;;;;;;3.09;71.61;101159.65;109720;1244;58658;-83
2023/03/03 08:21:24;;;;;;;46.50;24.90;;;;;;;3.08;71.61;101155.71;109730;1241;72674;-83
2023/03/03 08:23:53;;;;;;;49.90;25.60;;;;;;;3.24;71.98;101151.93;109593;1241;70937;-83
2023/03/03 08:26:24;;;;;;;49.30;28.00;;;;;;;3.50;72.05;101153.55;109714;1241;68606;-80
2023/03/03 08:28:54;;;;;;;47.60;29.10;;;;;;;3.66;72.01;101152.14;109614;1241;72526;-81
2023/03/03 08:31:23;;;;;;;44.40;24.60;;;;;;;3.61;69.85;101149.21;109709;1242;58001;-78
2023/03/03 08:34:08;;;;;;;45.20;24.20;;;;;;;3.57;68.99;101143.48;109648;1241;61379;-82
2023/03/03 08:36:36;;;;;;;53.10;27.70;;;;;;;3.74;69.22;101140.48;109717;1241;74439;-81
2023/03/03 08:39:05;;;;;;;49.10;26.60;;;;;;;3.90;69.75;101137.80;109611;1244;70231;-85
2023/03/03 08:41:34;;;;;;;52.30;25.20;;;;;;;4.07;69.72;101133.86;109499;1241;68617;-80
2023/03/03 08:44:03;;;;;;;37.60;20.50;;;;;;;4.25;67.58;101131.11;109585;1241;62462;-81
2023/03/03 08:46:32;;;;;;;30.20;18.40;;;;;;;4.37;65.78;101130.96;109535;1242;58759;-81
2023/03/03 08:49:01;;;;;;;38.30;20.20;;;;;;;4.55;65.65;101130.05;109695;1244;59086;-80
2023/03/03 08:51:33;;;;;;;34.20;19.70;;;;;;;4.69;65.69;101126.06;109632;1244;72943;-81
2023/03/03 08:54:01;;;;;;;34.30;19.70;;;;;;;4.90;66.42;101124.45;109726;1241;72728;-84
2023/03/03 08:56:30;;;;;;;34.20;17.70;;;;;;;4.84;63.43;101120.60;109764;1241;60830;-83
2023/03/03 08:58:59;;;;;;;31.00;17.80;;;;;;;4.90;63.45;101113.61;109645;1244;62425;-83
2023/03/03 09:01:32;;;;;;;29.00;15.60;;;;;;;5.01;64.19;101112.61;109611;1244;57736;-79
2023/03/03 09:04:01;;;;;;;24.60;14.90;;;;;;;5.22;64.53;101105.34;109492;1241;60420;-83
2023/03/03 09:06:29;;;;;;;35.90;19.20;;;;;;;5.42;63.50;101100.83;109670;1241;73058;-80
2023/03/03 09:08:58;;;;;;;37.50;17.20;;;;;;;5.43;62.91;101095.73;109572;1242;62662;-82
2023/03/03 09:11:28;;;;;;;31.80;15.00;;;;;;;5.62;63.48;101093.17;109573;1242;59221;-83
2023/03/03 09:14:14;;;;;;;22.00;10.90;;;;;;;5.87;61.78;101093.92;109348;1241;64087;-84
2023/03/03 09:16:50;;;;;;;29.00;16.00;;;;;;;5.88;61.30;101091.11;109579;1242;60163;-81
2023/03/03 09:19:26;;;;;;;28.10;14.80;;;;;;;5.87;62.33;101089.26;109368;1247;57742;-83
2023/03/03 09:22:01;;;;;;;18.60;9.50;;;;;;;6.00;60.68;101084.67;109568;1241;73492;-83
2023/03/03 09:24:35;;;;;;;25.50;12.90;;;;;;;5.96;60.08;101084.36;109484;1241;72531;-82
2023/03/03 09:27:18;;;;;;;25.60;13.30;;;;;;;5.81;60.80;101083.52;109700;1241;70070;-82
2023/03/03 09:29:47;;;;;;;27.30;15.20;;;;;;;5.89;60.69;101081.74;109565;1244;62847;-81
2023/03/03 09:32:38;;;;;;;24.50;15.50;;;;;;;5.91;61.07;101080.59;109556;1242;57640;-82
2023/03/03 09:35:25;;;;;;;28.50;15.60;;;;;;;6.03;59.59;101068.48;109481;1241;60705;-82
2023/03/03 09:37:54;;;;;;;25.10;14.10;;;;;;;5.85;58.82;101066.52;109566;1244;64039;-82
2023/03/03 09:41:00;;;;;;;24.50;13.30;;;;;;;5.88;58.80;101065.55;109370;1246;61567;-84
2023/03/03 09:43:48;;;;;;;26.10;13.90;;;;;;;6.17;58.68;101055.38;109506;1241;70549;-84
2023/03/03 09:47:01;;;;;;;24.20;11.90;;;;;;;6.38;58.40;101050.34;109699;1242;63621;-83
2023/03/03 09:50:06;;;;;;;23.20;12.30;;;;;;;6.71;58.35;101047.48;109606;1244;57876;-83
2023/03/03 09:52:59;;;;;;;28.50;14.00;;;;;;;6.70;59.05;101047.38;109582;1241;57701;-83
2023/03/03 09:55:39;;;;;;;25.20;14.30;;;;;;;6.65;58.48;101038.09;109745;1241;62962;-82
2023/03/03 09:58:56;;;;;;;23.70;12.20;;;;;;;6.74;58.16;101036.98;109787;1242;72145;-81
2023/03/03 10:02:16;;;;;;;25.90;14.90;;;;;;;6.86;57.69;101036.83;109807;1244;62241;-81
2023/03/03 10:05:24;;;;;;;20.90;12.00;;;;;;;7.12;57.63;101038.25;109794;1242;63927;-81
2023/03/03 10:08:30;;;;;;;27.90;11.30;;;;;;;7.32;55.51;101037.35;109716;1244;60526;-82
2023/03/03 10:11:25;;;;;;;22.80;12.90;;;;;;;7.09;55.73;101035.11;109823;1241;60009;-80
2023/03/03 10:14:23;;;;;;;24.40;11.90;;;;;;;7.05;56.94;101028.39;109803;1241;73543;-80
2023/03/03 10:17:08;;;;;;;25.90;12.40;;;;;;;7.18;55.98;101022.67;109814;1242;63224;-82
2023/03/03 10:19:47;;;;;;;21.80;13.30;;;;;;;7.17;55.96;101013.95;109704;1241;71121;-83
2023/03/03 10:22:54;;;;;;;30.40;13.10;;;;;;;7.21;57.05;101008.85;109527;1241;63489;-83
2023/03/03 10:25:49;;;;;;;30.90;13.70;;;;;;;7.51;55.93;101007.05;109764;1244;57693;-82
2023/03/03 10:29:05;;;;;;;24.50;12.90;;;;;;;7.69;55.65;100995.68;109816;1241;57174;-83
2023/03/03 10:31:50;;;;;;;24.90;12.70;;;;;;;7.76;55.89;100990.95;109814;1240;73616;-81
2023/03/03 10:34:51;;;;;;;26.60;13.40;;;;;;;7.93;56.52;100991.33;109808;1241;71964;-84
2023/03/03 10:37:39;;;;;;;21.20;12.20;;;;;;;8.19;54.34;100985.16;109733;1241;60721;-81
2023/03/03 10:40:29;;;;;;;23.90;12.80;;;;;;;8.19;54.84;100977.89;109800;1241;63692;-82
2023/03/03 10:43:16;;;;;;;24.00;12.40;;;;;;;8.52;53.86;100973.88;109830;1243;57792;-82
2023/03/03 10:46:36;;;;;;;24.80;14.00;;;;;;;8.78;54.03;100967.63;109890;1240;57149;-82
2023/03/03 10:49:47;;;;;;;28.10;13.80;;;;;;;9.10;54.93;100962.22;109834;1241;62138;-84
2023/03/03 10:52:48;;;;;;;27.20;14.10;;;;;;;9.57;53.74;100956.99;109815;1241;71320;-85
2023/03/03 10:55:41;;;;;;;23.30;12.50;;;;;;;9.53;51.60;100952.56;109761;1241;60402;-84
2023/03/03 10:58:42;;;;;;;22.00;10.50;;;;;;;10.30;50.06;100944.71;109767;1241;63255;-83
2023/03/03 11:01:46;;;;;;;20.60;12.70;;;;;;;10.77;46.42;100942.04;109710;1242;61119;-84
2023/03/03 11:04:37;;;;;;;25.40;14.60;;;;;;;10.36;48.69;100937.48;109679;1241;61654;-83
2023/03/03 11:07:51;;;;;;;25.10;13.10;;;;;;;10.10;49.26;100935.59;109704;1241;72520;-83
2023/03/03 11:10:27;;;;;;;;;;;;;;;10.45;49.56;100933.23;109870;1241;72699;-84
2023/03/03 11:13:32;;;;;;;27.30;14.70;;;;;;;10.65;47.93;100929.77;109954;1241;59573;-81
2023/03/03 11:16:20;;;;;;;23.10;13.30;;;;;;;11.37;46.96;100923.50;109825;1241;72831;-85
2023/03/03 11:19:01;;;;;;;22.90;14.50;;;;;;;10.90;47.35;100921.91;109807;1244;57469;-85
2023/03/03 11:22:09;;;;;;;21.20;13.90;;;;;;;10.83;45.79;100918.05;109915;1241;60188;-85
2023/03/03 11:25:03;;;;;;;24.50;14.40;;;;;;;11.43;45.83;100914.98;109495;1241;73276;-86
2023/03/03 11:28:07;;;;;;;20.70;12.50;;;;;;;12.00;44.38;100915.86;109662;1241;70009;-85
2023/03/03 11:31:30;;;;;;;20.60;13.00;;;;;;;11.53;45.04;100909.52;109698;1241;70341;-80
2023/03/03 11:34:33;;;;;;;24.10;14.80;;;;;;;11.30;44.70;100904.38;109494;1241;63296;-85
2023/03/03 11:37:21;;;;;;;25.90;15.20;;;;;;;11.83;45.55;100898.46;109677;1244;61229;-76
2023/03/03 11:39:55;;;;;;;23.70;15.50;;;;;;;11.04;45.34;100892.50;109533;1242;60296;-84
2023/03/03 11:42:31;;;;;;;28.10;15.00;;;;;;;11.52;45.47;100890.23;109335;1241;63394;-85
2023/03/03 11:45:16;;;;;;;30.40;14.80;;;;;;;11.88;44.65;100887.61;109383;1241;62169;-84